Accueil
METAR-TAF:

METAR-TAF

Aéroports :

Lake Tahoe Airport

South Lake Tahoe, Californie, États-Unis

latitude: 38-53-38N, longitude: 119-59-43W, altitude: 1909 m

Observation

Le bulletin a été fait il y a 27 minutes, à 23:53 UTC
Vent calme
Température 13°C
Humidité 35%
Pression 1026 hPa
Visibilité: 16.1 km
Ciel clair

METAR: KTVL 112353Z AUTO 00000KT 10SM CLR 13/M02 A3029 RMK AO2 SLP240 T01281022 10156 20122 $

Heure: 16:20 (00:20 UTC)

Prévision

Le bulletin a été fait il y a 1 heure et 0 minutes, à 23:20 UTC
Prévision valable du 12 à 00 UTC au 12 à 24 UTC
Vent 4 kt de direction variable
Visibilité: 10 km
Nuages fragmentés à une hauteur de 25000 ft

TAF: KTVL 112320Z 1200/1224 VRB04KT P6SM BKN250

Observations et prévisions météorologiques de plus de 4000 aéroports (messages METAR et TAF).

Les stations disponibles sont représentées par des disques jaunes et rouges sur la carte.

Passer la souris dessus pour voir le nom de la station.

Cliquer dessus pour voir les observations et prévisions météorologiques.

Pour changer de carte: cliquez sur les boutons verts avec une croix noire pour zoomer, sur le bouton vert avec un tiret pour effectuer un zoom arrière, ou sur les flèches vertes pour les cartes adjacentes.


METAR-TAF: